Maysville, Colorado
Current Conditions -  °F | °C
As of 3:15 AM on Saturday 22 Nov 2014 (Local Time) from KANK Reporting Station
Clear Clear  
Wind Chill: 23°   Ceiling: Unl
Heat Index: 28°   Visibility: 10mi
Dew Point: 13°   Wind: 5mph
Humidity: 54%   Direction: 300°WNW
Pressure: 30.14"   Gusts: NA
Location:  38.5561°N, 106.066°W
Report Text: KANK 221015Z AUTO 30004KT 10SM CLR M02/M10 A3014 RMK AO1 T10201103
Loading
Personal Weather Stations






























Interactive Weather Map New forecast layout! Learn more

10-Day Weather Forecast

Advertisements
Track Severe Weather on mobile